Time;durP1;ratioP1;P1;durP2;ratioP2;P2;SDS_P1;SDS_P2;PMS_P1;PMS_P2;Temp;Humidity;BMP_temperature;BMP_pressure;BME280_temperature;BME280_humidity;BME280_pressure;Samples;Min_cycle;Max_cycle;Signal;HPM_P1;HPM_P2
2023/08/26 00:01:50;;;;;;;58.72;27.15;;;16.80;99.90;;;;;;4957938;28;20053;-80
2023/08/26 00:04:16;;;;;;;52.95;28.25;;;16.80;99.90;;;;;;4957495;28;20137;-80
2023/08/26 00:06:42;;;;;;;41.13;25.27;;;16.70;99.90;;;;;;4940428;28;20062;-80
2023/08/26 00:09:08;;;;;;;36.97;25.05;;;16.70;99.90;;;;;;4941503;28;20527;-79
2023/08/26 00:11:34;;;;;;;50.13;28.15;;;16.60;99.90;;;;;;4944959;28;21135;-81
2023/08/26 00:13:59;;;;;;;31.98;23.70;;;16.50;99.90;;;;;;4941415;28;20129;-81
2023/08/26 00:16:26;;;;;;;66.07;26.48;;;16.40;99.90;;;;;;4957035;28;20050;-80
2023/08/26 00:18:51;;;;;;;38.25;24.98;;;16.30;99.90;;;;;;4934923;28;20080;-79
2023/08/26 00:21:21;;;;;;;37.03;24.17;;;15.10;99.90;;;;;;4939741;28;20047;-80
2023/08/26 00:23:50;;;;;;;39.80;23.60;;;16.20;99.90;;;;;;4951259;28;20131;-79
2023/08/26 00:26:18;;;;;;;41.00;23.58;;;16.20;99.90;;;;;;4923971;28;20668;-81
2023/08/26 00:28:44;;;;;;;28.25;21.35;;;16.20;99.90;;;;;;4939889;28;20090;-79
2023/08/26 00:31:11;;;;;;;37.05;23.42;;;16.10;99.90;;;;;;4937255;28;20053;-80
2023/08/26 00:33:36;;;;;;;33.47;23.25;;;16.10;99.90;;;;;;4944904;28;20421;-79
2023/08/26 00:36:03;;;;;;;57.75;25.23;;;16.00;99.90;;;;;;4927530;28;20121;-79
2023/08/26 00:38:28;;;;;;;33.22;22.77;;;16.00;99.90;;;;;;4922266;28;20930;-81
2023/08/26 00:40:55;;;;;;;32.50;21.27;;;16.00;99.90;;;;;;4923204;28;20053;-79
2023/08/26 00:43:20;;;;;;;34.30;22.08;;;16.00;99.90;;;;;;4939262;28;20125;-81
2023/08/26 00:45:48;;;;;;;30.27;21.83;;;16.00;99.90;;;;;;4946281;28;20050;-80
2023/08/26 00:48:15;;;;;;;32.15;21.67;;;16.00;99.90;;;;;;4933312;28;20050;-80
2023/08/26 00:50:43;;;;;;;28.63;20.48;;;16.10;99.90;;;;;;4922910;28;20596;-79
2023/08/26 00:53:11;;;;;;;28.30;20.08;;;16.20;99.90;;;;;;4924129;28;20054;-82
2023/08/26 00:55:39;;;;;;;30.88;19.83;;;16.20;99.90;;;;;;4924833;28;20054;-79
2023/08/26 00:58:05;;;;;;;29.65;19.30;;;16.20;99.90;;;;;;4942732;28;20059;-79
2023/08/26 01:00:33;;;;;;;24.88;18.58;;;16.20;99.90;;;;;;4929301;28;20822;-80
2023/08/26 01:02:59;;;;;;;22.05;17.17;;;16.20;99.90;;;;;;4926429;28;20524;-77
2023/08/26 01:05:26;;;;;;;30.77;18.75;;;16.20;99.90;;;;;;4925139;28;20042;-81
2023/08/26 01:07:51;;;;;;;24.63;17.48;;;16.20;99.90;;;;;;4943268;28;20105;-82
2023/08/26 01:10:19;;;;;;;36.13;17.77;;;16.10;99.90;;;;;;4947458;28;20875;-78
2023/08/26 01:13:07;;;;;;;26.63;17.58;;;16.20;99.90;;;;;;4938093;28;20847;-79
2023/08/26 01:15:37;;;;;;;24.55;15.68;;;16.60;99.90;;;;;;4942488;28;20810;-80
2023/08/26 01:18:06;;;;;;;26.10;15.98;;;16.00;99.90;;;;;;4942907;28;20578;-80
2023/08/26 01:20:33;;;;;;;36.15;15.73;;;16.00;99.90;;;;;;4938249;28;20543;-82
2023/08/26 01:22:59;;;;;;;17.98;13.07;;;15.90;99.90;;;;;;4936346;28;20877;-79
2023/08/26 01:25:26;;;;;;;25.90;15.02;;;13.10;99.90;;;;;;4922582;28;20054;-78
2023/08/26 01:27:53;;;;;;;21.35;12.98;;;15.90;99.90;;;;;;4925108;28;20051;-81
2023/08/26 01:30:21;;;;;;;24.80;14.10;;;15.80;99.90;;;;;;4927007;28;20055;-83
2023/08/26 01:33:06;;;;;;;18.45;12.85;;;15.80;99.90;;;;;;4939668;28;20047;-79
2023/08/26 01:35:40;;;;;;;14.55;11.90;;;15.80;99.90;;;;;;4927717;28;20532;-80
2023/08/26 01:38:08;;;;;;;35.58;14.43;;;15.80;99.90;;;;;;4938435;28;20069;-78
2023/08/26 01:40:34;;;;;;;17.30;12.20;;;15.70;99.90;;;;;;4924224;28;20061;-80
2023/08/26 01:43:02;;;;;;;22.25;13.30;;;15.70;99.90;;;;;;4956686;28;20086;-79
2023/08/26 01:45:28;;;;;;;17.35;13.43;;;15.70;99.90;;;;;;4944761;28;20062;-80
2023/08/26 01:47:54;;;;;;;15.50;12.35;;;15.70;99.90;;;;;;4955182;28;20050;-81
2023/08/26 01:50:20;;;;;;;28.13;14.35;;;15.60;99.90;;;;;;4956863;28;20158;-80
2023/08/26 01:52:45;;;;;;;22.02;12.90;;;15.60;99.90;;;;;;4942814;28;20065;-79
2023/08/26 01:55:12;;;;;;;18.05;13.93;;;15.60;99.90;;;;;;4943110;28;20508;-80
2023/08/26 01:57:37;;;;;;;20.00;13.90;;;15.60;99.90;;;;;;4959654;28;20047;-81
2023/08/26 02:00:05;;;;;;;18.52;13.13;;;15.60;99.90;;;;;;4947566;28;20481;-79
2023/08/26 02:02:30;;;;;;;24.90;13.15;;;15.60;99.90;;;;;;4945508;28;20054;-78
2023/08/26 02:04:56;;;;;;;21.00;12.48;;;15.50;99.90;;;;;;4928081;28;20064;-79
2023/08/26 02:07:22;;;;;;;17.67;12.52;;;15.50;99.90;;;;;;4959826;28;20058;-81
2023/08/26 02:09:48;;;;;;;17.15;11.65;;;15.40;99.90;;;;;;4951123;28;20413;-81
2023/08/26 02:12:13;;;;;;;14.60;11.02;;;15.40;99.90;;;;;;4945756;28;20066;-81
2023/08/26 02:14:39;;;;;;;15.63;11.52;;;15.30;99.90;;;;;;4943898;28;20055;-80
2023/08/26 02:17:05;;;;;;;15.70;11.57;;;15.30;99.90;;;;;;4944050;28;20251;-77
2023/08/26 02:19:30;;;;;;;21.65;11.57;;;15.10;99.90;;;;;;4920526;28;20070;-80
2023/08/26 02:21:56;;;;;;;23.55;13.02;;;15.10;99.90;;;;;;4940512;28;20078;-80
2023/08/26 02:24:22;;;;;;;18.67;12.45;;;15.00;99.90;;;;;;4941009;28;20054;-78
2023/08/26 02:26:48;;;;;;;17.05;11.68;;;15.00;99.90;;;;;;4925095;28;20069;-82
2023/08/26 02:29:13;;;;;;;15.25;11.75;;;14.90;99.90;;;;;;4940278;28;20043;-81
2023/08/26 02:31:39;;;;;;;20.52;12.90;;;14.90;99.90;;;;;;4939998;28;20054;-81
2023/08/26 02:34:05;;;;;;;17.73;11.77;;;14.80;99.90;;;;;;4941916;28;20061;-80
2023/08/26 02:36:31;;;;;;;27.30;12.98;;;14.70;99.90;;;;;;4925820;28;20086;-81
2023/08/26 02:38:56;;;;;;;25.98;13.23;;;14.70;99.90;;;;;;4942126;28;20038;-79
2023/08/26 02:41:22;;;;;;;20.80;12.63;;;14.70;99.90;;;;;;4932166;28;20058;-78
2023/08/26 02:43:48;;;;;;;22.48;12.77;;;14.60;99.90;;;;;;4941618;28;20067;-78
2023/08/26 02:46:13;;;;;;;17.48;12.23;;;14.60;99.90;;;;;;4942065;28;21560;-81
2023/08/26 02:48:39;;;;;;;21.73;11.90;;;14.60;99.90;;;;;;4941433;28;20456;-81
2023/08/26 02:51:05;;;;;;;20.25;13.25;;;14.60;99.90;;;;;;4937174;28;20055;-80
2023/08/26 02:53:31;;;;;;;21.95;12.45;;;14.60;99.90;;;;;;4938931;28;20085;-80
2023/08/26 02:55:57;;;;;;;21.05;12.60;;;14.60;99.90;;;;;;4939436;28;20039;-80
2023/08/26 02:58:23;;;;;;;23.65;12.75;;;14.50;99.90;;;;;;4939895;28;20787;-79
2023/08/26 03:00:49;;;;;;;19.02;11.85;;;14.50;99.90;;;;;;4938051;28;20331;-78
2023/08/26 03:03:15;;;;;;;15.00;10.82;;;14.40;99.90;;;;;;4937626;28;20113;-79
2023/08/26 03:05:41;;;;;;;20.38;12.50;;;14.40;99.90;;;;;;4922384;28;20049;-82
2023/08/26 03:08:07;;;;;;;18.13;11.80;;;12.60;99.90;;;;;;4924791;28;21938;-81
2023/08/26 03:10:33;;;;;;;20.60;12.93;;;14.40;99.90;;;;;;4924509;28;20085;-79
2023/08/26 03:12:59;;;;;;;25.02;12.63;;;14.40;99.90;;;;;;4940248;28;20059;-81
2023/08/26 03:15:29;;;;;;;21.92;11.95;;;14.40;99.90;;;;;;4940464;28;20717;-79
2023/08/26 03:17:59;;;;;;;14.82;10.93;;;14.40;99.90;;;;;;4941227;28;20043;-81
2023/08/26 03:20:25;;;;;;;18.63;10.77;;;14.40;99.90;;;;;;4937617;28;20054;-79
2023/08/26 03:22:50;;;;;;;20.73;11.57;;;14.40;99.90;;;;;;4941471;28;20062;-78
2023/08/26 03:25:16;;;;;;;16.83;11.68;;;14.40;99.90;;;;;;4925964;28;20578;-80
2023/08/26 03:27:42;;;;;;;19.33;11.25;;;14.40;99.90;;;;;;4925383;28;20153;-79
2023/08/26 03:30:08;;;;;;;22.00;11.65;;;14.40;99.90;;;;;;4940827;28;20520;-81
2023/08/26 03:32:34;;;;;;;16.70;11.57;;;14.40;99.90;;;;;;4940831;28;20833;-81
2023/08/26 03:35:00;;;;;;;16.92;11.02;;;11.90;99.90;;;;;;4924657;28;20057;-81
2023/08/26 03:37:26;;;;;;;17.20;11.20;;;14.40;99.90;;;;;;4919994;28;20051;-79
2023/08/26 03:39:51;;;;;;;18.30;9.93;;;14.40;99.90;;;;;;4927842;28;20090;-81
2023/08/26 03:42:17;;;;;;;19.75;10.52;;;14.30;99.90;;;;;;4944124;28;20062;-78
2023/08/26 03:44:43;;;;;;;20.52;12.13;;;14.30;99.90;;;;;;4940737;28;20078;-80
2023/08/26 03:47:09;;;;;;;24.98;11.30;;;14.30;99.90;;;;;;4925149;28;20208;-83
2023/08/26 03:49:34;;;;;;;13.93;9.57;;;13.90;99.90;;;;;;4923967;28;20047;-78
2023/08/26 03:52:00;;;;;;;19.55;10.73;;;14.10;99.90;;;;;;4940681;28;20046;-80
2023/08/26 03:54:26;;;;;;;20.02;11.57;;;14.10;99.90;;;;;;4939540;28;20327;-81
2023/08/26 03:56:51;;;;;;;11.23;9.60;;;14.00;99.90;;;;;;4953716;28;20051;-79
2023/08/26 03:59:18;;;;;;;16.75;9.57;;;11.60;99.90;;;;;;4937321;28;20058;-79
2023/08/26 04:01:44;;;;;;;18.67;10.02;;;13.90;99.90;;;;;;4920258;28;20136;-82
2023/08/26 04:04:10;;;;;;;15.32;9.48;;;13.70;99.90;;;;;;4924876;28;20812;-80
2023/08/26 04:06:36;;;;;;;17.02;8.98;;;13.60;99.90;;;;;;4959683;28;20499;-82
2023/08/26 04:09:02;;;;;;;14.75;9.38;;;13.50;99.90;;;;;;4941218;28;20047;-79
2023/08/26 04:11:28;;;;;;;11.48;9.30;;;13.40;99.90;;;;;;4935439;28;20050;-81
2023/08/26 04:13:54;;;;;;;16.27;9.32;;;13.30;99.90;;;;;;4938457;28;20057;-78
2023/08/26 04:16:21;;;;;;;10.82;7.75;;;13.30;99.90;;;;;;4923632;28;20047;-79
2023/08/26 04:18:47;;;;;;;16.75;8.68;;;13.20;99.90;;;;;;4932699;28;20050;-80
2023/08/26 04:21:13;;;;;;;16.17;8.95;;;13.20;99.90;;;;;;4949800;28;20112;-82
2023/08/26 04:23:39;;;;;;;12.15;8.23;;;13.10;99.90;;;;;;4926282;28;20822;-79
2023/08/26 04:26:05;;;;;;;13.63;9.13;;;13.10;99.90;;;;;;4928322;28;20054;-80
2023/08/26 04:28:31;;;;;;;15.00;8.98;;;12.80;99.90;;;;;;4939290;28;20086;-78
2023/08/26 04:31:01;;;;;;;16.52;8.50;;;13.00;99.90;;;;;;4939219;28;20298;-79
2023/08/26 04:33:27;;;;;;;10.40;7.78;;;12.90;99.90;;;;;;4939254;28;20062;-80
2023/08/26 04:35:53;;;;;;;11.95;7.97;;;12.90;99.90;;;;;;4922779;28;20113;-80
2023/08/26 04:38:18;;;;;;;14.82;8.65;;;12.90;99.90;;;;;;4924891;28;20652;-78
2023/08/26 04:40:45;;;;;;;15.80;8.98;;;12.90;99.90;;;;;;4925245;28;20055;-79
2023/08/26 04:43:11;;;;;;;12.73;8.75;;;12.90;99.90;;;;;;4940862;28;20069;-79
2023/08/26 04:45:40;;;;;;;16.17;9.57;;;12.90;99.90;;;;;;4928987;28;20055;-79
2023/08/26 04:48:07;;;;;;;24.08;11.23;;;12.90;99.90;;;;;;4922514;28;20065;-80
2023/08/26 04:50:33;;;;;;;19.42;10.27;;;12.90;99.90;;;;;;4921486;28;20065;-78
2023/08/26 04:53:00;;;;;;;16.08;11.15;;;13.00;99.90;;;;;;4931703;28;20579;-79
2023/08/26 04:55:26;;;;;;;20.63;11.23;;;13.00;99.90;;;;;;4934249;28;20051;-81
2023/08/26 04:57:52;;;;;;;25.40;12.05;;;13.20;99.90;;;;;;4923439;28;20112;-79
2023/08/26 05:00:18;;;;;;;18.83;11.32;;;13.20;99.90;;;;;;4922139;28;20599;-78
2023/08/26 05:02:45;;;;;;;20.25;11.50;;;13.30;99.90;;;;;;4925779;28;20133;-77
2023/08/26 05:05:11;;;;;;;16.58;10.45;;;13.40;99.90;;;;;;4941260;28;20090;-80
2023/08/26 05:07:37;;;;;;;27.15;12.13;;;13.50;99.90;;;;;;4939356;28;20898;-80
2023/08/26 05:10:03;;;;;;;16.60;10.27;;;13.60;99.90;;;;;;4923192;28;20058;-81
2023/08/26 05:12:30;;;;;;;17.65;10.55;;;13.60;99.90;;;;;;4928907;28;20532;-79
2023/08/26 05:14:56;;;;;;;16.10;10.60;;;13.70;99.90;;;;;;4923800;28;20886;-82
2023/08/26 05:17:22;;;;;;;20.08;10.85;;;13.80;99.90;;;;;;4927331;28;20100;-77
2023/08/26 05:19:48;;;;;;;18.30;11.23;;;13.90;99.90;;;;;;4924705;28;20050;-78
2023/08/26 05:22:13;;;;;;;21.73;9.88;;;14.00;99.90;;;;;;4922603;28;20053;-77
2023/08/26 05:24:39;;;;;;;14.93;10.77;;;14.10;99.90;;;;;;4926281;28;20054;-77
2023/08/26 05:27:05;;;;;;;14.80;10.93;;;14.20;99.90;;;;;;4925757;28;20110;-80
2023/08/26 05:29:31;;;;;;;14.93;11.20;;;14.30;99.90;;;;;;4938263;28;20097;-80
2023/08/26 05:31:57;;;;;;;17.35;11.55;;;14.40;99.90;;;;;;4943260;28;20049;-76
2023/08/26 05:34:23;;;;;;;18.52;11.77;;;14.40;99.90;;;;;;4931469;28;20055;-79
2023/08/26 05:36:48;;;;;;;17.88;11.95;;;14.50;99.90;;;;;;4931602;28;20054;-77
2023/08/26 05:39:14;;;;;;;30.75;13.75;;;14.60;99.90;;;;;;4947459;28;20883;-80
2023/08/26 05:41:40;;;;;;;18.48;11.48;;;14.70;99.90;;;;;;4924377;28;20061;-80
2023/08/26 05:44:06;;;;;;;15.93;10.18;;;14.70;99.90;;;;;;4939835;28;20035;-79
2023/08/26 05:46:32;;;;;;;16.02;10.73;;;14.80;99.90;;;;;;4924557;28;21313;-85
2023/08/26 05:48:58;;;;;;;17.60;11.50;;;14.90;99.90;;;;;;4944619;28;20723;-78
2023/08/26 05:51:23;;;;;;;15.00;11.05;;;14.90;99.90;;;;;;4925347;28;20292;-78
2023/08/26 05:53:49;;;;;;;22.17;11.98;;;15.00;99.90;;;;;;4943847;28;20059;-81
2023/08/26 05:56:15;;;;;;;18.15;11.32;;;15.10;99.90;;;;;;4942767;28;20058;-81
2023/08/26 05:58:41;;;;;;;16.02;11.88;;;15.10;99.90;;;;;;4924307;28;20275;-82
2023/08/26 06:01:07;;;;;;;18.60;12.00;;;15.20;99.90;;;;;;4938330;28;20050;-80
2023/08/26 06:03:32;;;;;;;15.77;11.65;;;15.30;99.90;;;;;;4941846;28;20477;-77
2023/08/26 06:05:58;;;;;;;19.00;12.88;;;15.40;99.90;;;;;;4925001;28;20564;-78
2023/08/26 06:08:24;;;;;;;18.40;12.52;;;15.50;99.90;;;;;;4945086;28;20051;-80
2023/08/26 06:10:55;;;;;;;16.08;11.18;;;15.60;99.90;;;;;;4939605;28;20059;-82
2023/08/26 06:13:20;;;;;;;17.15;12.63;;;15.70;99.90;;;;;;4945013;28;20061;-83
2023/08/26 06:15:53;;;;;;;17.83;13.15;;;15.80;99.90;;;;;;4939773;28;20055;-79
2023/08/26 06:18:19;;;;;;;15.95;12.10;;;15.90;99.90;;;;;;4930536;28;20121;-79
2023/08/26 06:20:45;;;;;;;16.77;12.65;;;16.00;99.90;;;;;;4940666;28;20050;-80
2023/08/26 06:23:11;;;;;;;15.88;11.40;;;16.00;99.90;;;;;;4933882;28;20074;-79
2023/08/26 06:25:36;;;;;;;19.10;12.10;;;16.00;99.90;;;;;;4924889;28;20089;-82
2023/08/26 06:28:02;;;;;;;15.73;10.88;;;16.10;99.90;;;;;;4934197;28;20121;-79
2023/08/26 06:30:28;;;;;;;13.88;10.88;;;16.10;99.90;;;;;;4942173;28;20054;-78
2023/08/26 06:32:54;;;;;;;14.98;11.75;;;16.10;99.90;;;;;;4940295;28;20748;-79
2023/08/26 06:35:24;;;;;;;17.88;12.52;;;16.10;99.90;;;;;;4940936;28;20590;-80
2023/08/26 06:37:50;;;;;;;22.13;12.60;;;16.10;99.90;;;;;;4942967;28;20057;-80
2023/08/26 06:40:15;;;;;;;19.33;12.98;;;16.20;99.90;;;;;;4943869;28;20042;-80
2023/08/26 06:42:41;;;;;;;17.45;11.73;;;16.20;99.90;;;;;;4943451;28;20054;-78
2023/08/26 06:45:07;;;;;;;16.45;12.65;;;13.50;99.90;;;;;;4928065;28;20139;-79
2023/08/26 06:47:33;;;;;;;17.73;12.57;;;16.20;99.90;;;;;;4946244;28;20493;-78
2023/08/26 06:49:59;;;;;;;15.60;12.52;;;16.20;99.90;;;;;;4943160;28;20058;-78
2023/08/26 06:52:27;;;;;;;15.35;12.40;;;16.20;99.90;;;;;;4946290;28;20066;-77
2023/08/26 06:54:53;;;;;;;17.23;12.57;;;16.20;99.90;;;;;;4926547;28;20560;-84
2023/08/26 06:57:18;;;;;;;17.90;13.25;;;16.20;99.90;;;;;;4942355;28;20050;-78
2023/08/26 06:59:44;;;;;;;21.13;14.30;;;16.30;99.90;;;;;;4945254;28;20121;-77
2023/08/26 07:02:10;;;;;;;21.63;14.23;;;13.40;99.90;;;;;;4944016;28;20138;-79
2023/08/26 07:04:36;;;;;;;18.83;13.65;;;16.40;99.90;;;;;;4948882;28;20089;-77
2023/08/26 07:07:02;;;;;;;20.15;14.18;;;16.50;99.90;;;;;;4942509;28;20050;-79
2023/08/26 07:09:28;;;;;;;21.08;14.27;;;16.60;99.90;;;;;;4926109;28;20051;-79
2023/08/26 07:11:53;;;;;;;17.40;13.52;;;16.70;99.90;;;;;;4925227;28;20102;-77
2023/08/26 07:14:19;;;;;;;16.80;14.13;;;16.80;99.90;;;;;;4941988;28;20062;-77
2023/08/26 07:16:45;;;;;;;19.17;13.70;;;16.90;99.90;;;;;;4940484;28;20058;-76
2023/08/26 07:19:11;;;;;;;22.45;15.10;;;17.00;99.90;;;;;;4939836;28;20050;-77
2023/08/26 07:21:37;;;;;;;17.17;12.93;;;17.20;99.90;;;;;;4946442;28;20050;-76
2023/08/26 07:24:03;;;;;;;22.23;14.35;;;17.30;99.90;;;;;;4924803;28;20144;-76
2023/08/26 07:26:29;;;;;;;14.57;13.00;;;17.40;99.90;;;;;;4940686;28;20039;-76
2023/08/26 07:28:55;;;;;;;15.90;13.32;;;17.40;99.90;;;;;;4940201;28;20058;-77
2023/08/26 07:31:20;;;;;;;19.83;14.23;;;17.60;99.90;;;;;;4924966;28;20301;-78
2023/08/26 07:33:46;;;;;;;20.20;14.65;;;17.80;99.90;;;;;;4941077;28;20046;-75
2023/08/26 07:36:12;;;;;;;20.70;15.18;;;18.20;99.90;;;;;;4925257;28;20430;-75
2023/08/26 07:38:39;;;;;;;16.75;14.57;;;18.50;99.90;;;;;;4947825;28;20113;-74
2023/08/26 07:41:04;;;;;;;20.40;14.15;;;18.60;99.90;;;;;;4924157;28;20051;-78
2023/08/26 07:43:31;;;;;;;19.83;15.77;;;18.50;99.90;;;;;;4945248;28;20053;-76
2023/08/26 07:45:57;;;;;;;15.23;12.95;;;18.50;99.90;;;;;;4942141;28;20054;-75
2023/08/26 07:48:23;;;;;;;19.98;14.80;;;18.40;99.90;;;;;;4944797;28;20046;-76
2023/08/26 07:50:49;;;;;;;18.77;15.20;;;18.30;99.90;;;;;;4938080;28;20042;-76
2023/08/26 07:53:14;;;;;;;18.25;15.05;;;18.10;99.90;;;;;;4942443;28;20054;-76
2023/08/26 07:55:40;;;;;;;17.10;14.52;;;17.90;99.90;;;;;;4931672;28;20055;-77
2023/08/26 07:58:06;;;;;;;21.38;15.95;;;17.90;99.90;;;;;;4937370;28;20059;-76
2023/08/26 08:00:31;;;;;;;18.95;15.27;;;18.00;99.90;;;;;;4935050;28;20173;-76
2023/08/26 08:02:57;;;;;;;18.83;16.65;;;18.20;99.90;;;;;;4942750;28;20159;-73
2023/08/26 08:05:23;;;;;;;19.85;15.23;;;18.50;99.90;;;;;;4939813;28;20447;-79
2023/08/26 08:07:49;;;;;;;21.30;16.50;;;18.80;99.90;;;;;;4932702;28;20667;-76
2023/08/26 08:10:15;;;;;;;20.98;18.05;;;19.40;99.90;;;;;;4940131;28;20428;-78
2023/08/26 08:12:40;;;;;;;17.13;15.32;;;19.90;99.90;;;;;;4939710;28;20292;-81
2023/08/26 08:15:08;;;;;;;19.10;16.15;;;20.20;99.90;;;;;;4923228;28;20051;-76
2023/08/26 08:17:36;;;;;;;17.13;14.00;;;20.20;99.90;;;;;;4918854;28;20152;-78
2023/08/26 08:20:03;;;;;;;17.27;15.18;;;20.40;99.90;;;;;;4927308;28;20051;-79
2023/08/26 08:22:37;;;;;;;15.05;13.40;;;20.40;99.90;;;;;;4923286;28;20051;-77
2023/08/26 08:25:03;;;;;;;12.88;11.57;;;20.30;99.90;;;;;;4940437;28;20087;-78
2023/08/26 08:27:30;;;;;;;13.27;11.93;;;20.20;99.90;;;;;;4938655;28;20273;-79
2023/08/26 08:29:57;;;;;;;13.18;10.77;;;20.30;99.90;;;;;;4936609;28;20105;-81
2023/08/26 08:32:23;;;;;;;13.88;10.35;;;21.20;99.90;;;;;;4960144;28;20050;-77
2023/08/26 08:34:49;;;;;;;13.23;10.57;;;22.30;99.90;;;;;;4942161;28;20056;-78
2023/08/26 08:37:15;;;;;;;11.00;9.88;;;23.40;99.90;;;;;;4940734;28;20050;-80
2023/08/26 08:39:41;;;;;;;12.93;9.45;;;24.60;99.90;;;;;;4957210;28;20272;-82
2023/08/26 08:42:09;;;;;;;13.98;10.05;;;25.50;99.90;;;;;;4925462;28;20065;-82
2023/08/26 08:44:40;;;;;;;14.00;8.73;;;26.30;99.90;;;;;;4925696;28;20136;-80
2023/08/26 08:47:06;;;;;;;11.32;8.75;;;26.90;99.90;;;;;;4956713;28;20054;-77
2023/08/26 08:49:33;;;;;;;9.05;8.00;;;27.40;99.60;;;;;;4940786;28;20475;-81
2023/08/26 08:52:00;;;;;;;10.98;7.60;;;27.20;98.10;;;;;;4957843;28;20142;-77
2023/08/26 08:54:28;;;;;;;11.65;9.00;;;27.00;97.50;;;;;;4956204;28;20054;-77
2023/08/26 08:56:55;;;;;;;10.25;8.45;;;26.50;96.50;;;;;;4940028;28;20105;-73
2023/08/26 08:59:21;;;;;;;9.73;7.47;;;25.90;96.60;;;;;;4939617;28;20062;-77
2023/08/26 09:01:48;;;;;;;11.90;8.07;;;25.30;96.90;;;;;;4937508;28;20928;-79
2023/08/26 09:04:14;;;;;;;9.00;7.97;;;24.80;97.60;;;;;;4938016;28;20680;-79
2023/08/26 09:06:39;;;;;;;11.80;8.65;;;24.90;98.20;;;;;;4937999;28;20061;-78
2023/08/26 09:09:15;;;;;;;9.38;8.10;;;25.40;98.30;;;;;;4939058;28;20078;-78
2023/08/26 09:11:41;;;;;;;8.60;6.88;;;26.10;98.20;;;;;;4938556;28;20086;-80
2023/08/26 09:14:15;;;;;;;10.50;6.67;;;26.90;97.30;;;;;;4856943;28;10000471;-79
2023/08/26 09:16:42;;;;;;;9.32;7.55;;;27.00;95.00;;;;;;4934840;28;21081;-79
2023/08/26 09:19:12;;;;;;;9.35;6.32;;;27.20;95.00;;;;;;4923860;28;20054;-79
2023/08/26 09:21:45;;;;;;;8.25;7.35;;;27.10;94.50;;;;;;4929605;28;20062;-80
2023/08/26 09:24:15;;;;;;;12.23;6.60;;;26.90;93.30;;;;;;4936610;28;20523;-74
2023/08/26 09:26:43;;;;;;;7.80;5.82;;;26.70;92.80;;;;;;4935580;28;20051;-79
2023/08/26 09:29:19;;;;;;;7.15;5.72;;;27.00;93.80;;;;;;4920798;28;20050;-77
2023/08/26 09:31:46;;;;;;;5.45;4.82;;;27.50;93.10;;;;;;4948235;28;20080;-73
2023/08/26 09:34:12;;;;;;;8.93;4.80;;;27.80;92.80;;;;;;4955722;28;20162;-80
2023/08/26 09:36:41;;;;;;;9.15;5.45;;;28.10;92.70;;;;;;4934023;28;20133;-76
2023/08/26 09:39:14;;;;;;;7.18;4.90;;;27.10;91.50;;;;;;4949452;28;20043;-77
2023/08/26 09:41:45;;;;;;;8.65;4.88;;;28.30;91.20;;;;;;4930773;28;20137;-77
2023/08/26 09:44:12;;;;;;;9.20;4.97;;;28.20;91.60;;;;;;4933282;28;20054;-76
2023/08/26 09:46:39;;;;;;;4.95;4.13;;;27.90;90.90;;;;;;4921261;28;20082;-78
2023/08/26 09:49:15;;;;;;;6.07;3.67;;;27.30;90.50;;;;;;4935106;28;20086;-81
2023/08/26 09:51:49;;;;;;;7.22;4.28;;;27.20;90.60;;;;;;4940579;28;20134;-78
2023/08/26 09:54:16;;;;;;;5.68;3.78;;;27.40;91.00;;;;;;4934373;28;20066;-78
2023/08/26 09:56:42;;;;;;;6.03;3.70;;;27.70;91.20;;;;;;4937880;28;20269;-82
2023/08/26 09:59:08;;;;;;;7.72;4.35;;;28.00;91.00;;;;;;4938114;28;20074;-79
2023/08/26 10:01:35;;;;;;;7.50;3.63;;;28.10;90.80;;;;;;4932966;28;20118;-78
2023/08/26 10:04:11;;;;;;;6.50;4.40;;;28.00;90.30;;;;;;4939026;28;20776;-80
2023/08/26 10:06:52;;;;;;;6.80;3.67;;;27.50;86.80;;;;;;4945133;28;20123;-78
2023/08/26 10:09:33;;;;;;;7.80;4.20;;;26.70;88.00;;;;;;4930664;28;20046;-79
2023/08/26 10:12:03;;;;;;;7.07;4.00;;;26.00;89.30;;;;;;4932238;28;20085;-77
2023/08/26 10:14:32;;;;;;;8.43;4.07;;;25.50;90.10;;;;;;4947731;28;20047;-78
2023/08/26 10:17:01;;;;;;;7.05;4.03;;;25.30;90.20;;;;;;4940718;28;20350;-80
2023/08/26 10:19:30;;;;;;;7.97;4.28;;;25.10;90.80;;;;;;4942320;28;20117;-81
2023/08/26 10:21:57;;;;;;;7.03;3.78;;;24.90;91.10;;;;;;4928225;28;20073;-78
2023/08/26 10:24:24;;;;;;;10.35;3.70;;;24.80;91.10;;;;;;4943990;28;20085;-79
2023/08/26 10:26:50;;;;;;;7.45;3.15;;;24.70;91.70;;;;;;4942547;28;20085;-82
2023/08/26 10:29:17;;;;;;;5.60;3.33;;;25.20;92.40;;;;;;4938424;28;20062;-77
2023/08/26 10:31:45;;;;;;;4.90;2.55;;;25.60;92.00;;;;;;4957186;28;20631;-78
2023/08/26 10:34:11;;;;;;;5.65;2.42;;;25.90;91.60;;;;;;4957021;28;20047;-75
2023/08/26 10:36:39;;;;;;;6.47;2.40;;;26.30;91.50;;;;;;4943584;28;20050;-83
2023/08/26 10:39:16;;;;;;;6.05;2.05;;;26.50;91.10;;;;;;4939547;28;20122;-84
2023/08/26 10:42:17;;;;;;;7.47;2.10;;;26.40;90.50;;;;;;4944731;28;20487;-77
2023/08/26 10:44:46;;;;;;;6.28;2.15;;;26.10;90.10;;;;;;4926144;28;20090;-78
2023/08/26 10:47:21;;;;;;;7.72;1.83;;;25.90;90.30;;;;;;4942657;28;20046;-82
2023/08/26 10:49:48;;;;;;;7.15;2.00;;;25.70;90.50;;;;;;4940254;28;20473;-76
2023/08/26 10:52:18;;;;;;;9.05;3.00;;;25.50;90.40;;;;;;4940736;28;20055;-79
2023/08/26 10:54:45;;;;;;;7.38;1.23;;;25.40;90.70;;;;;;4941886;28;20073;-81
2023/08/26 10:57:11;;;;;;;4.90;1.30;;;25.20;90.90;;;;;;4961856;28;20046;-79
2023/08/26 10:59:39;;;;;;;5.55;1.25;;;25.00;90.50;;;;;;4946658;28;20057;-79
2023/08/26 11:02:11;;;;;;;5.63;1.23;;;24.90;90.70;;;;;;4949740;28;20853;-80
2023/08/26 11:04:44;;;;;;;3.85;0.90;;;24.90;90.80;;;;;;4928435;28;20078;-78
2023/08/26 11:07:20;;;;;;;5.53;1.10;;;24.90;90.20;;;;;;4943918;28;20055;-78
2023/08/26 11:09:46;;;;;;;3.40;0.75;;;24.80;90.40;;;;;;4946572;28;20405;-80
2023/08/26 11:12:25;;;;;;;4.30;0.60;;;24.80;90.70;;;;;;4944423;28;20055;-77
2023/08/26 11:14:50;;;;;;;6.53;1.05;;;24.70;90.90;;;;;;4942630;28;20097;-77
2023/08/26 11:17:17;;;;;;;4.00;0.77;;;24.70;91.00;;;;;;4958323;28;20058;-79
2023/08/26 11:19:44;;;;;;;6.15;0.50;;;24.30;91.00;;;;;;4939364;28;20046;-77
2023/08/26 11:22:11;;;;;;;4.80;0.70;;;24.30;90.90;;;;;;4940917;28;20411;-78
2023/08/26 11:24:36;;;;;;;4.93;0.70;;;24.20;90.80;;;;;;4944490;28;20057;-78
2023/08/26 11:27:03;;;;;;;2.60;0.60;;;24.10;90.70;;;;;;4939747;28;20054;-80
2023/08/26 11:29:29;;;;;;;7.72;0.77;;;24.10;91.40;;;;;;4941944;28;20046;-76
2023/08/26 11:31:55;;;;;;;3.80;0.60;;;24.10;91.50;;;;;;4929319;28;20064;-77
2023/08/26 11:34:23;;;;;;;4.50;0.50;;;23.90;91.00;;;;;;4942517;28;20050;-80
2023/08/26 11:36:52;;;;;;;6.40;1.00;;;23.50;90.90;;;;;;4942080;28;20129;-76
2023/08/26 11:39:18;;;;;;;6.25;0.60;;;23.20;91.20;;;;;;4929280;28;20062;-76
2023/08/26 11:41:43;;;;;;;3.95;0.57;;;23.10;91.90;;;;;;4936837;28;20094;-77
2023/08/26 11:44:18;;;;;;;4.65;1.58;;;23.00;92.30;;;;;;4956545;28;20073;-76
2023/08/26 11:46:44;;;;;;;3.65;0.55;;;24.80;93.20;;;;;;4943458;28;20046;-76
2023/08/26 11:49:11;;;;;;;4.85;0.50;;;22.60;92.80;;;;;;4945181;28;20047;-78
2023/08/26 11:51:40;;;;;;;5.97;0.80;;;22.40;93.00;;;;;;4924448;28;20130;-77
2023/08/26 11:54:22;;;;;;;3.05;0.47;;;22.20;93.10;;;;;;4928487;28;20515;-76
2023/08/26 11:56:48;;;;;;;3.30;0.50;;;22.00;92.70;;;;;;4940512;28;20504;-79
2023/08/26 11:59:21;;;;;;;5.90;0.75;;;21.80;92.90;;;;;;4944651;28;20082;-80
2023/08/26 12:01:47;;;;;;;2.38;0.40;;;21.70;93.10;;;;;;4924812;28;20527;-79
2023/08/26 12:04:16;;;;;;;4.47;0.82;;;21.60;93.10;;;;;;4927746;28;20812;-79
2023/08/26 12:06:43;;;;;;;1.95;0.45;;;21.50;93.20;;;;;;4941840;28;20847;-79
2023/08/26 12:09:11;;;;;;;3.50;0.50;;;21.50;93.40;;;;;;4947310;28;20039;-80
2023/08/26 12:11:40;;;;;;;2.47;0.50;;;21.50;93.80;;;;;;4939627;28;20090;-79
2023/08/26 12:14:29;;;;;;;3.13;0.63;;;21.50;93.70;;;;;;4945204;28;20047;-80
2023/08/26 12:17:02;;;;;;;3.10;0.40;;;21.40;94.00;;;;;;4946643;28;20046;-79
2023/08/26 12:19:34;;;;;;;2.45;0.40;;;21.30;94.40;;;;;;4942496;28;20576;-78
2023/08/26 12:22:00;;;;;;;6.07;0.60;;;21.20;94.60;;;;;;4941001;28;20133;-78
2023/08/26 12:24:26;;;;;;;4.72;0.73;;;21.10;94.70;;;;;;4940098;28;20058;-78
2023/08/26 12:26:54;;;;;;;3.78;0.47;;;21.10;95.10;;;;;;4924722;28;20129;-77
2023/08/26 12:29:20;;;;;;;2.22;0.30;;;21.30;95.70;;;;;;4939995;28;20046;-81
2023/08/26 12:31:49;;;;;;;2.67;0.35;;;21.50;95.30;;;;;;4923503;28;20113;-79
2023/08/26 12:34:16;;;;;;;1.13;0.30;;;21.50;95.00;;;;;;4943321;28;20062;-80